KVBG/VBG METAR and TAF weather

Enter ICAO airport designator
Station Type Date Time Source
KVBG METAR 2020/10/29 16:58 UTC NOAA

KVBG 291658Z 00000KT 10SM CLR 17/M01 A3008 RMK AO2A SLP189 T01681008


Station Type Date Time Source
KVBG Decoded METAR 2020/10/29 16:58 UTC NOAA

Lompoc, Vandenberg Air Force Base, CA, United States (KVBG) 34-43-46N 120-34-36W 121M
Oct 29, 2020 - 12:58 PM EDT / 2020.10.29 1658 UTC
Wind: Calm:0
Visibility: 10 mile(s):0
Sky conditions: clear
Temperature: 62.2 F (16.8 C)
Dew Point: 30.6 F (-0.8 C)
Relative Humidity: 30%
Pressure (altimeter): 30.08 in. Hg (1018 hPa)
ob: KVBG 291658Z 00000KT 10SM CLR 17/M01 A3008 RMK AO2A SLP189 T01681008
cycle: 17

Station Type Date Time Source
KVBG TAF 2020/10/29 14:22 UTC NOAA

TAF KVBG 291415Z 2914/3020 12007KT 9999 SKC QNH3004INS
BECMG 2918/2919 29009KT 9999 SKC QNH3002INS
BECMG 3006/3007 VRB06KT 4800 BR BKN001 QNH3005INS
TEMPO 3007/3009 0400 FG VV001
BECMG 3009/3010 11007KT 9999 NSW FEW001 QNH3006INS
BECMG 3018/3019 29009KT 9999 SKC QNH3002INS TX23/2920Z TN06/2914Z

Example: see airport list